Orkoien, Spain
Current Conditions -  °F | °C
As of 8:00 AM on Friday 28 Nov 2014 (Local Time) from LEPP Reporting Station
Few Clouds Few Clouds  
Wind Chill: 55°   Ceiling: Unl
Heat Index: 55°   Visibility: 6mi
Dew Point: 45°   Wind: 24mph
Humidity: 67%   Direction: 140°SE
Pressure: 29.18"   Gusts: 36mph
Location:  42.82°N, 1.7°W
Report Text: LEPP 280700Z 14021G31KT 9999 FEW030 13/07 Q0988
Loading
Personal Weather Stations






























Interactive Weather Map New forecast layout! Learn more

10-Day Weather Forecast

Advertisements
Track Severe Weather on mobile